Time;durP1;ratioP1;P1;durP2;ratioP2;P2;SDS_P1;SDS_P2;PMS_P1;PMS_P2;Temp;Humidity;BMP_temperature;BMP_pressure;BME280_temperature;BME280_humidity;BME280_pressure;Samples;Min_cycle;Max_cycle;Signal;HPM_P1;HPM_P2
2021/03/03 00:01:31;;;;;;;5.43;3.38;;;17.70;61.60;;;;;;10606575;27;20027;-59
2021/03/03 00:06:32;;;;;;;5.22;3.22;;;17.70;61.50;;;;;;10591464;27;20035;-59
2021/03/03 00:11:32;;;;;;;5.28;3.63;;;17.70;61.50;;;;;;10581156;28;20074;-59
2021/03/03 00:16:33;;;;;;;4.07;3.08;;;17.70;61.40;;;;;;10601574;27;20051;-59
2021/03/03 00:21:34;;;;;;;3.90;2.95;;;17.70;61.30;;;;;;10623654;27;20442;-59
2021/03/03 00:26:35;;;;;;;5.15;2.92;;;17.70;61.30;;;;;;10584143;27;20142;-58
2021/03/03 00:31:36;;;;;;;4.70;2.80;;;17.70;61.20;;;;;;10580755;28;20056;-59
2021/03/03 00:36:36;;;;;;;3.75;2.80;;;17.70;61.20;;;;;;10601298;28;20496;-59
2021/03/03 00:41:37;;;;;;;3.97;2.92;;;17.70;61.20;;;;;;10622731;28;20062;-59
2021/03/03 00:46:38;;;;;;;4.20;2.85;;;17.70;61.10;;;;;;10630448;27;20056;-59
2021/03/03 00:51:39;;;;;;;4.95;2.90;;;17.70;61.10;;;;;;10599134;27;20847;-60
2021/03/03 00:56:39;;;;;;;4.22;2.85;;;17.70;61.10;;;;;;10609359;27;20050;-59
2021/03/03 01:01:40;;;;;;;3.40;2.25;;;17.70;61.00;;;;;;10615708;27;20103;-59
2021/03/03 01:06:41;;;;;;;4.13;2.35;;;17.70;60.90;;;;;;10605151;27;20445;-59
2021/03/03 01:11:41;;;;;;;5.18;3.10;;;17.70;61.00;;;;;;10588394;28;20506;-59
2021/03/03 01:16:49;;;;;;;4.13;2.63;;;17.70;60.90;;;;;;10609052;27;20448;-59
2021/03/03 01:21:49;;;;;;;3.72;2.55;;;17.70;61.50;;;;;;10613234;27;20027;-59
2021/03/03 01:26:50;;;;;;;3.92;2.70;;;17.70;60.90;;;;;;10608380;27;20142;-59
2021/03/03 01:31:51;;;;;;;4.97;2.72;;;17.70;60.80;;;;;;10587268;28;20062;-59
2021/03/03 01:36:51;;;;;;;4.88;2.67;;;17.70;60.80;;;;;;10608796;27;20031;-58
2021/03/03 01:41:52;;;;;;;3.83;2.60;;;17.70;60.80;;;;;;10629830;27;20063;-59
2021/03/03 01:46:53;;;;;;;5.82;2.47;;;17.70;60.80;;;;;;10574810;27;20491;-59
2021/03/03 01:51:53;;;;;;;4.50;2.72;;;17.70;60.70;;;;;;10628908;27;20077;-59
2021/03/03 01:56:55;;;;;;;4.30;2.75;;;17.70;60.80;;;;;;10609045;27;20176;-59
2021/03/03 02:01:56;;;;;;;3.60;2.70;;;17.70;60.70;;;;;;10592803;27;20146;-59
2021/03/03 02:07:14;;;;;;;3.47;2.47;;;17.70;60.60;;;;;;10602345;27;20038;-59
2021/03/03 02:12:19;;;;;;;4.28;2.65;;;17.70;60.60;;;;;;10569244;28;20422;-59
2021/03/03 02:17:23;;;;;;;3.60;2.40;;;17.70;60.70;;;;;;10585439;28;20509;-60
2021/03/03 02:23:06;;;;;;;2.60;1.90;;;17.70;60.60;;;;;;10567743;28;20042;-59
2021/03/03 02:28:09;;;;;;;4.20;2.95;;;17.70;60.60;;;;;;10524237;28;20036;-59
2021/03/03 02:33:16;;;;;;;3.60;2.60;;;17.70;60.60;;;;;;10567190;28;20042;-59
2021/03/03 02:38:18;;;;;;;3.35;2.38;;;17.70;60.50;;;;;;10600546;27;20023;-59
2021/03/03 02:43:19;;;;;;;3.13;2.45;;;17.70;60.50;;;;;;10608870;27;20383;-59
2021/03/03 02:48:20;;;;;;;4.43;2.15;;;17.70;60.50;;;;;;10607575;27;20030;-59
2021/03/03 02:53:21;;;;;;;2.97;2.22;;;17.70;60.40;;;;;;10584022;28;20032;-59
2021/03/03 02:58:21;;;;;;;4.20;2.63;;;17.70;60.40;;;;;;10618087;27;20059;-58
2021/03/03 03:03:34;;;;;;;3.90;2.55;;;17.70;60.30;;;;;;10597684;27;20036;-59
2021/03/03 03:08:37;;;;;;;3.40;2.58;;;17.70;60.30;;;;;;10562689;27;20454;-59
2021/03/03 03:13:39;;;;;;;3.58;2.67;;;17.70;60.30;;;;;;10582835;28;20076;-59
2021/03/03 03:18:45;;;;;;;3.92;2.58;;;17.80;60.40;;;;;;10604083;27;20160;-59
2021/03/03 03:23:46;;;;;;;3.30;2.15;;;17.70;60.30;;;;;;10607428;27;20391;-59
2021/03/03 03:28:48;;;;;;;2.75;1.90;;;17.70;60.30;;;;;;10565527;28;20043;-57
2021/03/03 03:33:51;;;;;;;3.20;2.40;;;17.70;60.30;;;;;;10582448;28;20030;-59
2021/03/03 03:38:51;;;;;;;3.53;1.98;;;17.70;60.20;;;;;;10605704;27;20092;-59
2021/03/03 03:43:55;;;;;;;4.30;2.63;;;17.70;60.20;;;;;;10589285;27;20503;-58
2021/03/03 03:48:56;;;;;;;3.35;2.28;;;17.70;60.20;;;;;;10565873;28;20043;-59
2021/03/03 03:53:57;;;;;;;3.88;2.47;;;17.70;60.20;;;;;;10553551;28;20548;-59
2021/03/03 03:58:58;;;;;;;3.25;2.22;;;17.70;60.10;;;;;;10623277;27;20031;-59
2021/03/03 04:03:58;;;;;;;3.40;2.50;;;17.70;60.10;;;;;;10590491;27;20407;-58
2021/03/03 04:08:59;;;;;;;3.45;2.10;;;17.70;60.10;;;;;;10601140;27;20518;-58
2021/03/03 04:14:00;;;;;;;2.75;2.05;;;17.70;60.10;;;;;;10582153;28;20118;-58
2021/03/03 04:19:00;;;;;;;4.45;2.40;;;17.70;60.10;;;;;;10604465;27;20050;-59
2021/03/03 04:24:01;;;;;;;3.03;2.30;;;17.70;60.10;;;;;;10622475;27;20041;-59
2021/03/03 04:29:02;;;;;;;3.53;2.58;;;17.70;60.10;;;;;;10580888;28;20035;-58
2021/03/03 04:34:03;;;;;;;3.25;2.20;;;17.70;60.10;;;;;;10581136;28;20032;-59
2021/03/03 04:39:04;;;;;;;3.38;2.33;;;17.70;60.00;;;;;;10623174;28;20034;-59
2021/03/03 04:44:05;;;;;;;2.97;2.40;;;17.70;59.90;;;;;;10622194;28;20108;-59
2021/03/03 04:49:06;;;;;;;3.47;1.95;;;17.70;59.90;;;;;;10580549;28;20448;-59
2021/03/03 04:54:06;;;;;;;3.22;2.22;;;17.70;60.00;;;;;;10580987;28;20514;-59
2021/03/03 04:59:07;;;;;;;2.78;2.17;;;17.70;59.90;;;;;;10622741;28;20059;-59
2021/03/03 05:04:07;;;;;;;3.83;1.83;;;17.70;59.80;;;;;;10586745;28;20100;-59
2021/03/03 05:09:08;;;;;;;3.05;2.30;;;17.70;60.40;;;;;;10598076;28;20046;-59
2021/03/03 05:14:09;;;;;;;4.90;1.98;;;17.70;59.80;;;;;;10580729;28;20039;-59
2021/03/03 05:19:10;;;;;;;2.92;2.40;;;17.70;59.80;;;;;;10604315;28;20105;-59
2021/03/03 05:24:11;;;;;;;3.47;2.03;;;17.70;59.70;;;;;;10620501;28;20023;-59
2021/03/03 05:29:12;;;;;;;3.10;2.20;;;17.70;59.70;;;;;;10598082;27;20143;-59
2021/03/03 05:34:12;;;;;;;2.90;2.10;;;17.70;59.70;;;;;;10589277;27;20059;-60
2021/03/03 05:39:13;;;;;;;4.07;2.40;;;17.70;59.70;;;;;;10600997;27;20030;-58
2021/03/03 05:44:15;;;;;;;3.80;2.10;;;17.70;59.70;;;;;;10586074;27;20084;-59
2021/03/03 05:49:19;;;;;;;3.70;2.08;;;17.70;59.70;;;;;;10584790;27;20031;-59
2021/03/03 05:54:21;;;;;;;3.50;2.08;;;17.70;59.70;;;;;;10585209;27;20747;-59
2021/03/03 05:59:22;;;;;;;3.13;2.33;;;17.70;59.70;;;;;;10604400;27;20035;-59
2021/03/03 06:04:23;;;;;;;3.30;2.03;;;17.70;59.70;;;;;;10598110;27;20039;-58
2021/03/03 06:09:24;;;;;;;2.45;1.80;;;17.70;59.60;;;;;;10583514;27;20023;-59
2021/03/03 06:14:24;;;;;;;3.08;2.00;;;17.70;59.60;;;;;;10624890;27;20456;-59
2021/03/03 06:19:26;;;;;;;2.85;2.00;;;17.70;59.60;;;;;;10583663;28;20403;-59
2021/03/03 06:24:33;;;;;;;3.00;2.00;;;17.70;59.50;;;;;;10585243;27;20068;-58
2021/03/03 06:29:34;;;;;;;6.55;2.67;;;17.70;59.50;;;;;;10594563;27;20066;-59
2021/03/03 06:34:35;;;;;;;8.15;3.30;;;17.70;60.10;;;;;;10577775;27;20030;-58
2021/03/03 06:39:36;;;;;;;8.63;2.83;;;17.70;60.80;;;;;;10601172;27;20048;-60
2021/03/03 06:45:04;;;;;;;6.68;2.58;;;17.70;62.70;;;;;;10596877;27;20386;-61
2021/03/03 06:50:12;;;;;;;4.78;2.63;;;17.70;62.60;;;;;;10623198;27;20042;-59
2021/03/03 06:55:13;;;;;;;5.03;2.22;;;17.70;62.40;;;;;;10625088;27;20031;-58
2021/03/03 07:00:14;;;;;;;6.13;2.45;;;17.70;62.10;;;;;;10600135;27;20037;-59
2021/03/03 07:05:15;;;;;;;6.32;2.35;;;17.70;61.80;;;;;;10606131;27;20046;-59
2021/03/03 07:10:31;;;;;;;9.02;2.90;;;17.60;61.60;;;;;;10560724;27;20045;-58
2021/03/03 07:15:32;;;;;;;8.05;2.90;;;17.60;61.30;;;;;;10600661;27;20118;-59
2021/03/03 07:20:44;;;;;;;8.82;3.40;;;17.60;60.80;;;;;;10604906;27;20506;-59
2021/03/03 07:25:46;;;;;;;8.30;3.22;;;17.60;60.50;;;;;;10600532;27;20043;-58
2021/03/03 07:30:47;;;;;;;7.15;3.20;;;17.60;60.40;;;;;;10557364;28;20031;-59
2021/03/03 07:35:47;;;;;;;5.90;2.95;;;17.60;60.20;;;;;;10583459;27;20111;-58
2021/03/03 07:40:49;;;;;;;8.57;3.53;;;17.60;60.10;;;;;;10582507;27;20032;-58
2021/03/03 07:45:50;;;;;;;5.53;2.95;;;17.60;60.00;;;;;;10553300;28;20039;-58
2021/03/03 07:50:50;;;;;;;9.27;3.20;;;17.60;59.90;;;;;;10568478;27;20119;-58
2021/03/03 07:55:58;;;;;;;7.55;3.08;;;17.60;59.80;;;;;;10547088;28;20750;-60
2021/03/03 08:01:00;;;;;;;6.00;3.00;;;17.70;59.80;;;;;;10563598;27;20049;-58
2021/03/03 08:06:20;;;;;;;5.90;2.65;;;17.60;59.70;;;;;;10555424;28;20039;-58
2021/03/03 08:11:21;;;;;;;5.60;3.03;;;17.60;59.60;;;;;;10585159;27;20118;-57
2021/03/03 08:16:22;;;;;;;6.43;3.13;;;17.60;59.60;;;;;;10595383;27;20511;-59
2021/03/03 08:21:23;;;;;;;7.07;3.35;;;17.60;59.60;;;;;;10606197;27;20035;-59
2021/03/03 08:26:23;;;;;;;5.93;3.40;;;17.50;59.70;;;;;;10603263;27;20055;-59
2021/03/03 08:31:25;;;;;;;6.85;3.15;;;17.60;59.60;;;;;;10574805;28;20059;-59
2021/03/03 08:36:26;;;;;;;4.97;3.28;;;17.60;59.70;;;;;;10594185;28;20035;-58
2021/03/03 08:41:34;;;;;;;6.70;3.75;;;17.60;59.60;;;;;;10610792;28;20537;-58
2021/03/03 08:46:41;;;;;;;6.65;3.63;;;17.50;59.40;;;;;;10572850;28;20038;-58
2021/03/03 08:51:47;;;;;;;7.10;3.92;;;17.60;59.60;;;;;;10584317;28;20028;-58
2021/03/03 08:56:52;;;;;;;6.00;3.58;;;17.60;59.70;;;;;;10585542;28;20035;-58
2021/03/03 09:02:12;;;;;;;5.88;3.47;;;17.60;59.40;;;;;;10579484;28;20031;-59
2021/03/03 09:07:15;;;;;;;6.68;3.63;;;17.60;59.50;;;;;;10593162;27;20035;-58
2021/03/03 09:12:20;;;;;;;6.88;4.13;;;17.60;59.40;;;;;;10622664;27;20495;-56
2021/03/03 09:17:27;;;;;;;7.40;3.83;;;17.60;59.60;;;;;;10623798;27;20035;-57
2021/03/03 09:22:32;;;;;;;6.45;3.65;;;17.60;60.10;;;;;;10602381;27;20482;-60
2021/03/03 09:27:33;;;;;;;8.10;3.75;;;17.50;60.70;;;;;;10598809;27;20047;-59
2021/03/03 09:32:34;;;;;;;8.30;3.65;;;17.50;61.10;;;;;;10580499;28;20036;-58
2021/03/03 09:37:38;;;;;;;11.55;4.70;;;17.50;61.10;;;;;;10613105;27;20031;-58
2021/03/03 09:42:47;;;;;;;9.25;3.88;;;17.50;61.50;;;;;;10622645;27;20125;-58
2021/03/03 09:47:50;;;;;;;6.75;4.10;;;17.50;62.10;;;;;;10621965;27;20079;-58
2021/03/03 09:52:55;;;;;;;9.75;5.30;;;17.60;62.50;;;;;;10597303;27;20035;-59
2021/03/03 09:57:58;;;;;;;11.20;4.88;;;17.50;62.60;;;;;;10581430;27;20047;-60
2021/03/03 10:03:02;;;;;;;11.13;5.00;;;17.50;62.70;;;;;;10622036;27;20031;-61
2021/03/03 10:08:13;;;;;;;11.10;4.78;;;17.50;62.70;;;;;;10621020;27;20081;-58
2021/03/03 10:13:25;;;;;;;14.13;4.95;;;17.50;63.40;;;;;;10603637;27;20084;-59
2021/03/03 10:18:25;;;;;;;10.10;4.03;;;17.50;63.60;;;;;;10609822;27;20115;-59
2021/03/03 10:23:30;;;;;;;9.45;4.53;;;17.50;63.80;;;;;;10591691;27;20031;-59
2021/03/03 10:28:31;;;;;;;10.73;4.13;;;17.50;63.90;;;;;;10587263;27;20051;-59
2021/03/03 10:33:42;;;;;;;9.23;5.38;;;17.50;63.80;;;;;;10560591;28;20383;-59
2021/03/03 10:38:54;;;;;;;9.45;5.00;;;17.40;63.20;;;;;;10577720;28;20119;-58
2021/03/03 10:43:55;;;;;;;11.80;5.25;;;17.40;63.30;;;;;;10593691;27;20035;-58
2021/03/03 10:49:11;;;;;;;16.33;5.65;;;17.40;63.40;;;;;;10575448;27;20447;-58
2021/03/03 10:54:12;;;;;;;6.43;4.30;;;17.30;63.40;;;;;;10582495;27;20035;-59
2021/03/03 10:59:30;;;;;;;8.82;4.78;;;17.30;63.20;;;;;;10595425;27;20083;-59
2021/03/03 11:04:45;;;;;;;6.95;4.30;;;17.20;63.20;;;;;;10608468;27;20570;-58
2021/03/03 11:09:53;;;;;;;8.85;3.85;;;17.30;63.20;;;;;;10616450;27;20034;-58
2021/03/03 11:14:54;;;;;;;7.28;4.45;;;17.30;63.20;;;;;;10610358;27;20038;-59
2021/03/03 11:19:54;;;;;;;7.90;4.47;;;17.20;63.20;;;;;;10584025;27;20034;-58
2021/03/03 11:24:55;;;;;;;10.40;4.38;;;17.30;63.20;;;;;;10589922;27;20104;-59
2021/03/03 11:29:56;;;;;;;11.30;5.43;;;17.30;63.20;;;;;;10571919;27;20195;-59
2021/03/03 11:34:56;;;;;;;9.65;5.28;;;17.30;63.10;;;;;;10617834;27;20146;-59
2021/03/03 11:39:57;;;;;;;10.57;4.85;;;17.30;63.20;;;;;;10617844;27;20107;-60
2021/03/03 11:44:58;;;;;;;8.88;4.47;;;17.40;64.20;;;;;;10591180;27;20115;-60
2021/03/03 11:49:59;;;;;;;8.07;4.35;;;17.40;63.20;;;;;;10591792;27;20123;-60
2021/03/03 11:54:59;;;;;;;8.95;4.10;;;17.40;63.40;;;;;;10585168;27;20042;-60
2021/03/03 12:00:00;;;;;;;14.38;5.57;;;17.40;63.50;;;;;;10579336;27;20476;-59
2021/03/03 12:05:01;;;;;;;8.57;4.72;;;17.30;63.70;;;;;;10587503;27;20054;-61
2021/03/03 12:10:05;;;;;;;14.63;4.65;;;17.30;63.80;;;;;;10573538;27;20028;-59
2021/03/03 12:15:07;;;;;;;12.15;5.47;;;17.40;64.10;;;;;;10616048;27;20049;-60
2021/03/03 12:20:09;;;;;;;14.82;4.97;;;17.40;64.10;;;;;;10594976;27;20050;-58
2021/03/03 12:25:11;;;;;;;11.45;6.07;;;17.40;64.00;;;;;;10581053;27;20114;-58
2021/03/03 12:30:12;;;;;;;17.17;7.47;;;17.40;63.90;;;;;;10590036;27;20039;-58
2021/03/03 12:35:13;;;;;;;13.18;7.20;;;17.40;63.70;;;;;;10566579;28;20035;-59
2021/03/03 12:40:14;;;;;;;14.63;6.88;;;17.30;63.50;;;;;;10587688;27;20035;-59
2021/03/03 12:45:15;;;;;;;14.00;9.63;;;17.30;63.50;;;;;;10582204;27;20087;-58
2021/03/03 12:50:17;;;;;;;17.98;9.48;;;17.40;63.30;;;;;;10606164;27;20038;-59
2021/03/03 12:55:18;;;;;;;18.15;10.75;;;17.30;63.20;;;;;;10589163;27;20039;-59
2021/03/03 13:00:19;;;;;;;14.43;8.70;;;17.40;63.10;;;;;;10587647;27;20325;-59
2021/03/03 13:05:20;;;;;;;13.63;8.38;;;17.40;63.20;;;;;;10585940;28;20078;-59
2021/03/03 13:10:21;;;;;;;16.10;8.98;;;17.40;63.10;;;;;;10581543;27;20038;-59
2021/03/03 13:15:21;;;;;;;14.55;10.10;;;17.40;63.10;;;;;;10628967;27;20031;-59
2021/03/03 13:20:22;;;;;;;26.35;11.02;;;17.30;63.00;;;;;;10606014;27;20030;-59
2021/03/03 13:25:23;;;;;;;15.75;11.95;;;17.40;62.80;;;;;;10599974;27;20029;-59
2021/03/03 13:30:24;;;;;;;13.90;9.90;;;17.40;62.80;;;;;;10606457;27;20462;-58
2021/03/03 13:35:25;;;;;;;17.20;10.70;;;17.40;62.80;;;;;;10563288;28;20046;-59
2021/03/03 13:40:26;;;;;;;14.32;9.93;;;17.40;62.80;;;;;;10586999;27;20962;-58
2021/03/03 13:45:27;;;;;;;20.73;9.57;;;17.40;62.80;;;;;;10628847;27;20066;-58
2021/03/03 13:50:28;;;;;;;15.48;10.15;;;17.40;62.80;;;;;;10617179;27;20510;-59
2021/03/03 13:55:29;;;;;;;16.05;10.93;;;17.40;62.80;;;;;;10620265;27;20031;-58
2021/03/03 14:00:30;;;;;;;23.98;10.90;;;17.40;62.80;;;;;;10585729;27;20031;-59
2021/03/03 14:05:30;;;;;;;24.98;12.85;;;17.40;62.70;;;;;;10621853;27;20031;-59
2021/03/03 14:10:31;;;;;;;26.90;12.93;;;17.50;62.80;;;;;;10616748;27;20056;-58
2021/03/03 14:15:32;;;;;;;38.00;13.90;;;17.40;62.80;;;;;;10579120;28;20035;-59
2021/03/03 14:20:32;;;;;;;45.10;17.05;;;17.50;62.90;;;;;;10594949;27;20019;-58
2021/03/03 14:25:33;;;;;;;34.85;15.82;;;17.50;63.10;;;;;;10593970;27;20031;-60
2021/03/03 14:30:34;;;;;;;35.70;16.10;;;17.50;62.90;;;;;;10596680;27;20043;-58
2021/03/03 14:35:34;;;;;;;46.85;17.95;;;17.50;62.90;;;;;;10594660;27;20034;-58
2021/03/03 14:40:35;;;;;;;32.42;17.05;;;17.50;62.90;;;;;;10566871;27;20126;-58
2021/03/03 14:45:36;;;;;;;39.20;16.38;;;17.50;62.80;;;;;;10578248;27;20080;-58
2021/03/03 14:50:37;;;;;;;52.97;18.30;;;17.50;62.90;;;;;;10579616;27;20031;-57
2021/03/03 14:55:38;;;;;;;57.88;18.75;;;17.50;63.60;;;;;;10604845;27;20512;-59
2021/03/03 15:00:39;;;;;;;36.80;17.50;;;17.50;64.40;;;;;;10617154;27;20027;-56
2021/03/03 15:05:45;;;;;;;38.40;16.48;;;17.50;63.70;;;;;;10576858;28;20124;-57
2021/03/03 15:10:46;;;;;;;49.17;20.27;;;17.50;63.40;;;;;;10559001;28;20128;-56
2021/03/03 15:15:47;;;;;;;62.33;22.27;;;17.50;63.50;;;;;;10593133;27;20475;-56
2021/03/03 15:20:47;;;;;;;64.60;23.17;;;17.40;63.00;;;;;;10598723;27;20031;-58
2021/03/03 15:25:48;;;;;;;46.78;22.63;;;17.50;63.00;;;;;;10590202;27;20126;-57
2021/03/03 15:30:49;;;;;;;50.25;21.45;;;17.40;62.90;;;;;;10564247;27;20046;-57
2021/03/03 15:35:50;;;;;;;48.50;23.30;;;17.40;62.80;;;;;;10599558;27;20129;-58
2021/03/03 15:40:50;;;;;;;47.05;26.45;;;17.40;62.60;;;;;;10614831;27;20445;-56
2021/03/03 15:45:51;;;;;;;60.78;32.28;;;17.40;61.70;;;;;;10591596;27;20483;-58
2021/03/03 15:50:52;;;;;;;63.22;31.17;;;17.30;61.80;;;;;;10593050;27;20059;-59
2021/03/03 15:55:52;;;;;;;49.40;30.80;;;17.30;61.90;;;;;;10593368;27;20425;-58
2021/03/03 16:00:53;;;;;;;51.60;32.53;;;17.30;62.10;;;;;;10578740;27;20039;-59
2021/03/03 16:05:54;;;;;;;56.22;30.35;;;17.20;62.30;;;;;;10617384;27;20126;-56
2021/03/03 16:10:54;;;;;;;62.72;33.28;;;17.20;62.30;;;;;;10613467;27;20054;-58
2021/03/03 16:15:55;;;;;;;53.45;31.08;;;17.20;62.70;;;;;;10609710;27;20110;-56
2021/03/03 16:20:56;;;;;;;50.92;31.75;;;17.20;62.50;;;;;;10597967;27;20230;-56
2021/03/03 16:25:56;;;;;;;58.38;32.17;;;17.30;63.80;;;;;;10587204;27;20035;-56
2021/03/03 16:30:57;;;;;;;57.20;30.08;;;17.30;64.10;;;;;;10575914;27;20090;-56
2021/03/03 16:35:58;;;;;;;41.65;28.25;;;17.30;63.70;;;;;;10588944;28;20039;-56
2021/03/03 16:41:00;;;;;;;43.83;28.92;;;17.30;64.20;;;;;;10616042;28;20038;-56
2021/03/03 16:46:01;;;;;;;51.83;28.67;;;17.30;65.10;;;;;;10596226;28;20031;-56
2021/03/03 16:51:02;;;;;;;55.28;32.20;;;17.40;67.00;;;;;;10584531;28;20376;-57
2021/03/03 16:56:03;;;;;;;58.22;28.92;;;17.50;68.50;;;;;;10592170;28;20032;-56
2021/03/03 17:01:04;;;;;;;60.25;29.98;;;17.60;69.10;;;;;;10622004;28;20035;-56
2021/03/03 17:06:05;;;;;;;50.55;29.13;;;17.60;68.60;;;;;;10606078;28;20039;-56
2021/03/03 17:11:05;;;;;;;47.95;26.05;;;17.70;69.30;;;;;;10580043;28;20076;-54
2021/03/03 17:16:06;;;;;;;50.20;25.55;;;17.80;68.70;;;;;;10595198;28;20110;-54
2021/03/03 17:21:07;;;;;;;46.72;26.38;;;17.80;68.50;;;;;;10595801;28;20110;-55
2021/03/03 17:26:08;;;;;;;42.55;23.88;;;17.80;68.30;;;;;;10585675;27;20034;-56
2021/03/03 17:31:08;;;;;;;42.67;22.95;;;17.80;68.00;;;;;;10598446;27;20579;-56
2021/03/03 17:36:10;;;;;;;40.55;22.95;;;17.80;67.50;;;;;;10600146;27;20032;-57
2021/03/03 17:41:11;;;;;;;47.63;22.08;;;17.80;67.80;;;;;;10595303;27;20031;-57
2021/03/03 17:46:11;;;;;;;43.70;21.67;;;17.80;67.80;;;;;;10578949;27;20118;-56
2021/03/03 17:51:12;;;;;;;36.25;21.63;;;17.80;67.60;;;;;;10583996;27;20047;-56
2021/03/03 17:56:13;;;;;;;38.38;22.48;;;17.70;67.30;;;;;;10597927;27;20216;-56
2021/03/03 18:01:14;;;;;;;43.83;22.02;;;17.70;68.10;;;;;;10594286;27;20039;-56
2021/03/03 18:06:15;;;;;;;36.38;20.95;;;17.70;68.00;;;;;;10586905;27;20032;-56
2021/03/03 18:11:15;;;;;;;34.95;19.50;;;17.70;67.50;;;;;;10622931;27;20518;-56
2021/03/03 18:16:17;;;;;;;33.40;19.33;;;17.60;67.20;;;;;;10612636;27;20076;-56
2021/03/03 18:21:17;;;;;;;32.08;17.10;;;17.60;67.10;;;;;;10599854;27;20411;-57
2021/03/03 18:26:18;;;;;;;27.25;17.55;;;17.60;67.40;;;;;;10613931;27;20024;-57
2021/03/03 18:31:19;;;;;;;31.38;18.85;;;17.60;67.50;;;;;;10595671;27;20162;-56
2021/03/03 18:36:19;;;;;;;27.83;18.48;;;17.60;66.60;;;;;;10601419;27;20023;-57
2021/03/03 18:41:20;;;;;;;28.70;18.67;;;17.60;66.90;;;;;;10595237;27;20024;-57
2021/03/03 18:46:24;;;;;;;25.17;17.45;;;17.60;67.00;;;;;;10598156;27;20103;-57
2021/03/03 18:51:25;;;;;;;27.48;16.83;;;17.50;67.10;;;;;;10595493;27;20110;-57
2021/03/03 18:56:25;;;;;;;29.33;16.98;;;17.50;67.10;;;;;;10607113;27;20031;-58
2021/03/03 19:01:27;;;;;;;25.25;15.65;;;17.50;67.10;;;;;;10598515;27;20475;-57
2021/03/03 19:06:27;;;;;;;21.80;15.70;;;17.50;67.20;;;;;;10595102;27;20041;-57
2021/03/03 19:11:28;;;;;;;21.55;15.18;;;17.50;67.20;;;;;;10582153;27;20031;-58
2021/03/03 19:16:29;;;;;;;27.25;16.77;;;17.50;67.30;;;;;;10597867;27;20103;-57
2021/03/03 19:21:30;;;;;;;21.45;14.20;;;17.50;67.30;;;;;;10599685;27;20039;-57
2021/03/03 19:26:30;;;;;;;21.70;15.05;;;17.50;67.60;;;;;;10605443;27;20047;-58
2021/03/03 19:31:33;;;;;;;21.10;13.98;;;17.50;66.90;;;;;;10595768;27;20055;-60
2021/03/03 19:36:34;;;;;;;21.45;14.55;;;17.60;66.70;;;;;;10597657;27;20463;-59
2021/03/03 19:41:35;;;;;;;21.60;14.80;;;17.60;66.90;;;;;;10603563;27;20023;-59
2021/03/03 19:46:36;;;;;;;23.08;14.15;;;17.60;66.90;;;;;;10596425;27;20024;-60
2021/03/03 19:51:36;;;;;;;18.20;12.23;;;17.60;66.60;;;;;;10594446;27;20027;-60
2021/03/03 19:56:37;;;;;;;21.77;14.13;;;17.60;66.70;;;;;;10598432;27;20026;-59
2021/03/03 20:01:38;;;;;;;17.38;13.50;;;17.60;66.60;;;;;;10597484;27;20420;-60
2021/03/03 20:06:38;;;;;;;16.95;11.90;;;17.60;66.10;;;;;;10595190;27;20032;-58
2021/03/03 20:11:39;;;;;;;15.20;12.00;;;17.50;66.40;;;;;;10600860;27;20442;-57
2021/03/03 20:16:40;;;;;;;15.25;11.60;;;17.50;66.30;;;;;;10623815;27;20074;-59
2021/03/03 20:21:41;;;;;;;15.50;11.48;;;17.50;66.10;;;;;;10612239;27;20027;-59
2021/03/03 20:26:41;;;;;;;15.88;12.02;;;17.50;66.00;;;;;;10605302;27;20039;-58
2021/03/03 20:31:45;;;;;;;19.63;10.93;;;17.50;66.00;;;;;;10586143;27;20365;-58
2021/03/03 20:36:45;;;;;;;16.80;11.65;;;17.50;65.50;;;;;;10607894;27;20024;-57
2021/03/03 20:41:56;;;;;;;14.50;11.32;;;17.50;65.50;;;;;;10593869;28;20031;-57
2021/03/03 20:47:13;;;;;;;16.48;10.63;;;17.40;65.40;;;;;;10579680;28;20391;-57
2021/03/03 20:52:15;;;;;;;14.50;11.02;;;17.40;65.20;;;;;;10562220;28;20054;-57
2021/03/03 20:57:19;;;;;;;17.15;10.77;;;17.40;65.10;;;;;;10576850;28;20110;-57
2021/03/03 21:02:20;;;;;;;17.65;11.15;;;17.40;65.00;;;;;;10601652;27;20038;-57
2021/03/03 21:07:32;;;;;;;12.77;10.57;;;17.50;64.90;;;;;;10560088;28;20118;-58
2021/03/03 21:12:37;;;;;;;13.15;9.77;;;17.50;64.60;;;;;;10608700;27;20043;-57
2021/03/03 21:17:41;;;;;;;12.77;10.05;;;17.50;64.50;;;;;;10587577;27;20039;-59
2021/03/03 21:22:42;;;;;;;12.93;9.60;;;17.60;64.30;;;;;;10564987;28;20141;-58
2021/03/03 21:27:43;;;;;;;12.85;9.88;;;17.60;64.70;;;;;;10569344;28;20125;-57
2021/03/03 21:32:50;;;;;;;13.82;9.98;;;17.60;63.90;;;;;;10592195;27;20103;-57
2021/03/03 21:37:55;;;;;;;11.55;8.95;;;17.70;63.90;;;;;;10611021;27;20023;-58
2021/03/03 21:42:56;;;;;;;12.00;9.10;;;17.70;63.80;;;;;;10610420;27;20513;-59
2021/03/03 21:48:00;;;;;;;13.38;9.75;;;17.70;63.70;;;;;;10610054;27;20035;-57
2021/03/03 21:53:01;;;;;;;12.75;9.23;;;17.70;63.60;;;;;;10625268;27;20050;-58
2021/03/03 21:58:02;;;;;;;12.52;9.50;;;17.70;63.50;;;;;;10609561;27;20020;-57
2021/03/03 22:03:09;;;;;;;12.20;9.52;;;17.70;63.40;;;;;;10608063;27;20118;-58
2021/03/03 22:08:11;;;;;;;12.77;9.07;;;17.70;63.30;;;;;;10608923;27;20042;-58
2021/03/03 22:13:12;;;;;;;12.07;8.98;;;17.70;63.20;;;;;;10625387;27;20035;-59
2021/03/03 22:18:14;;;;;;;12.60;9.38;;;17.70;63.10;;;;;;10563462;28;20456;-58
2021/03/03 22:23:24;;;;;;;11.40;8.73;;;17.70;63.00;;;;;;10575724;27;20538;-59
2021/03/03 22:28:35;;;;;;;11.10;8.77;;;17.70;63.00;;;;;;10588974;27;20101;-57
2021/03/03 22:33:45;;;;;;;14.02;9.57;;;17.70;63.00;;;;;;10565889;28;20031;-59
2021/03/03 22:38:46;;;;;;;12.55;9.30;;;17.70;62.90;;;;;;10561990;28;20028;-58
2021/03/03 22:43:50;;;;;;;13.07;9.60;;;17.70;62.80;;;;;;10548990;28;20031;-59
2021/03/03 22:48:53;;;;;;;12.30;8.77;;;17.70;62.70;;;;;;10591560;27;20491;-58
2021/03/03 22:53:57;;;;;;;11.32;8.70;;;17.70;62.60;;;;;;10607079;27;20043;-58
2021/03/03 22:59:07;;;;;;;10.98;8.60;;;17.70;63.20;;;;;;10595477;27;20023;-57
2021/03/03 23:04:08;;;;;;;11.30;8.43;;;17.70;62.50;;;;;;10596260;27;20035;-57
2021/03/03 23:09:11;;;;;;;12.02;8.23;;;17.80;62.50;;;;;;10625146;27;20027;-57
2021/03/03 23:14:16;;;;;;;10.40;8.60;;;17.70;62.30;;;;;;10589081;27;20099;-58
2021/03/03 23:19:20;;;;;;;10.65;8.23;;;17.80;62.30;;;;;;10613856;27;20069;-58
2021/03/03 23:24:23;;;;;;;10.23;7.80;;;17.70;62.30;;;;;;10575904;27;20566;-59
2021/03/03 23:29:26;;;;;;;10.50;7.63;;;17.80;62.20;;;;;;10583698;27;20113;-58
2021/03/03 23:34:30;;;;;;;12.43;8.80;;;17.80;62.20;;;;;;10577416;27;20471;-58
2021/03/03 23:39:37;;;;;;;13.30;8.85;;;17.80;62.70;;;;;;10551634;28;20418;-58
2021/03/03 23:44:38;;;;;;;9.05;7.20;;;17.80;62.00;;;;;;10574335;27;20499;-58
2021/03/03 23:49:40;;;;;;;9.63;7.85;;;17.80;62.00;;;;;;10580969;27;20100;-58
2021/03/03 23:54:52;;;;;;;12.23;8.68;;;17.80;62.00;;;;;;10597312;27;20467;-57
2021/03/03 23:59:53;;;;;;;10.73;7.70;;;17.80;61.90;;;;;;10600743;27;20032;-57
